createdAt,value
2019-03-12T00:00:54.538Z,14.80
2019-03-12T00:01:54.528Z,14.20
2019-03-12T00:02:54.513Z,13.70
2019-03-12T00:03:54.494Z,13.80
2019-03-12T00:04:54.492Z,12.70
2019-03-12T00:05:54.494Z,12.80
2019-03-12T00:06:54.467Z,14.40
2019-03-12T00:07:54.459Z,12.80
2019-03-12T00:08:54.435Z,13.60
2019-03-12T00:09:54.433Z,13.20
2019-03-12T00:10:54.447Z,13.20
2019-03-12T00:11:54.413Z,14.40
2019-03-12T00:12:54.412Z,13.30
2019-03-12T00:13:54.399Z,13.40
2019-03-12T00:14:54.419Z,13.20
2019-03-12T00:15:54.372Z,15.20
2019-03-12T00:16:54.367Z,13.10
2019-03-12T00:17:54.370Z,13.30
2019-03-12T00:18:54.341Z,13.50
2019-03-12T00:19:54.328Z,13.80
2019-03-12T00:20:54.344Z,14.30
2019-03-12T00:21:54.311Z,13.10
2019-03-12T00:22:54.307Z,14.50
2019-03-12T00:23:54.294Z,13.80
2019-03-12T00:24:54.286Z,15.60
2019-03-12T00:25:54.263Z,15.20
2019-03-12T00:26:54.292Z,14.30
2019-03-12T00:27:54.240Z,14.40
2019-03-12T00:28:54.252Z,14.40
2019-03-12T00:29:54.229Z,13.90
2019-03-12T00:30:54.226Z,12.60
2019-03-12T00:31:54.201Z,14.60
2019-03-12T00:32:55.725Z,13.30
2019-03-12T00:33:54.185Z,15.10
2019-03-12T00:34:54.175Z,13.00
2019-03-12T00:35:54.183Z,14.20
2019-03-12T00:36:54.153Z,12.80
2019-03-12T00:37:54.169Z,13.30
2019-03-12T00:38:54.124Z,15.80
2019-03-12T00:39:54.116Z,12.00
2019-03-12T00:40:54.111Z,13.10
2019-03-12T00:41:54.109Z,11.60
2019-03-12T00:42:54.102Z,13.80
2019-03-12T00:43:54.109Z,14.40
2019-03-12T00:44:54.070Z,14.30
2019-03-12T00:45:54.053Z,16.50
2019-03-12T00:46:54.053Z,14.50
2019-03-12T00:47:54.047Z,16.50
2019-03-12T00:48:54.044Z,13.40
2019-03-12T00:49:54.044Z,14.30
2019-03-12T00:50:54.038Z,14.00
2019-03-12T00:51:53.992Z,14.50
2019-03-12T00:52:53.989Z,13.30
2019-03-12T00:53:53.989Z,16.90
2019-03-12T00:54:53.995Z,13.60
2019-03-12T00:55:53.962Z,12.80
2019-03-12T00:56:53.964Z,12.50
2019-03-12T00:57:53.931Z,12.90
2019-03-12T00:58:53.922Z,14.30
2019-03-12T00:59:56.271Z,12.40
2019-03-12T01:00:53.896Z,13.30
2019-03-12T01:01:53.930Z,12.30
2019-03-12T01:02:53.883Z,12.00
2019-03-12T01:03:53.869Z,14.20
2019-03-12T01:04:53.863Z,12.80
2019-03-12T01:05:53.855Z,12.90
2019-03-12T01:06:53.846Z,14.10
2019-03-12T01:07:53.860Z,12.80
2019-03-12T01:08:53.824Z,13.50
2019-03-12T01:09:53.804Z,12.00
2019-03-12T01:10:53.802Z,14.40
2019-03-12T01:11:53.787Z,11.70
2019-03-12T01:12:53.794Z,14.40
2019-03-12T01:13:53.770Z,14.50
2019-03-12T01:14:53.759Z,13.80
2019-03-12T01:15:53.749Z,15.30
2019-03-12T01:16:53.746Z,13.80
2019-03-12T01:17:53.751Z,16.10
2019-03-12T01:18:53.712Z,13.40
2019-03-12T01:19:53.710Z,14.30
2019-03-12T01:20:53.702Z,14.50
2019-03-12T01:21:53.682Z,14.10
2019-03-12T01:22:53.695Z,12.20
2019-03-12T01:23:53.665Z,15.00
2019-03-12T01:24:53.649Z,13.70
2019-03-12T01:25:53.650Z,14.40
2019-03-12T01:26:53.635Z,13.90
2019-03-12T01:27:53.653Z,13.50
2019-03-12T01:28:53.621Z,13.50
2019-03-12T01:29:53.603Z,15.00
2019-03-12T01:30:53.588Z,13.10
2019-03-12T01:31:53.577Z,13.30
2019-03-12T01:32:53.601Z,11.90
2019-03-12T01:33:53.574Z,13.50
2019-03-12T01:34:53.571Z,14.30
2019-03-12T01:35:53.551Z,13.80
2019-03-12T01:36:53.548Z,13.90
2019-03-12T01:37:53.530Z,14.20
2019-03-12T01:38:53.540Z,12.70
2019-03-12T01:39:53.527Z,14.70
2019-03-12T01:40:53.511Z,13.70
2019-03-12T01:41:53.490Z,15.50
2019-03-12T01:42:53.488Z,13.80
2019-03-12T01:43:53.495Z,15.40
2019-03-12T01:44:53.456Z,13.00
2019-03-12T01:45:53.451Z,13.70
2019-03-12T01:46:53.434Z,14.20
2019-03-12T01:47:53.427Z,13.30
2019-03-12T01:48:53.418Z,15.90
2019-03-12T01:49:53.434Z,14.20
2019-03-12T01:50:53.392Z,15.50
2019-03-12T01:51:53.383Z,14.60
2019-03-12T01:52:53.369Z,13.40
2019-03-12T01:53:53.353Z,15.30
2019-03-12T01:54:53.371Z,13.50
2019-03-12T01:55:53.329Z,14.10
2019-03-12T01:56:53.320Z,16.90
2019-03-12T01:57:53.317Z,16.20
2019-03-12T01:58:53.303Z,15.70
2019-03-12T01:59:53.307Z,13.90
2019-03-12T02:00:53.313Z,16.00
2019-03-12T02:01:53.268Z,15.80
2019-03-12T02:02:53.254Z,16.70
2019-03-12T02:03:53.246Z,15.80
2019-03-12T02:04:53.237Z,15.60
2019-03-12T02:05:53.251Z,18.10
2019-03-12T02:06:53.219Z,17.40
2019-03-12T02:07:53.203Z,15.30
2019-03-12T02:08:53.191Z,17.00
2019-03-12T02:09:53.187Z,17.30
2019-03-12T02:10:53.205Z,17.30
2019-03-12T02:11:53.174Z,17.40
2019-03-12T02:12:53.158Z,16.60
2019-03-12T02:13:53.147Z,18.10
2019-03-12T02:14:53.133Z,19.20
2019-03-12T02:15:53.121Z,17.20
2019-03-12T02:16:53.129Z,17.70
2019-03-12T02:17:53.112Z,18.60
2019-03-12T02:18:53.096Z,18.30
2019-03-12T02:19:53.085Z,19.80
2019-03-12T02:20:53.079Z,18.10
2019-03-12T02:21:53.090Z,18.60
2019-03-12T02:22:53.053Z,19.00
2019-03-12T02:23:53.044Z,17.60
2019-03-12T02:24:53.282Z,17.30
2019-03-12T02:25:53.028Z,18.70
2019-03-12T02:26:53.010Z,18.30
2019-03-12T02:27:53.020Z,17.40
2019-03-12T02:28:52.990Z,19.20
2019-03-12T02:29:52.988Z,17.30
2019-03-12T02:30:52.992Z,19.40
2019-03-12T02:31:52.963Z,19.10
2019-03-12T02:32:52.970Z,17.90
2019-03-12T02:33:52.935Z,18.50
2019-03-12T02:34:52.928Z,17.90
2019-03-12T02:35:52.934Z,18.40
2019-03-12T02:36:52.902Z,17.60
2019-03-12T02:37:52.901Z,18.00
2019-03-12T02:38:52.909Z,17.60
2019-03-12T02:39:52.875Z,17.20
2019-03-12T02:40:52.859Z,16.40
2019-03-12T02:41:52.878Z,19.60
2019-03-12T02:42:52.845Z,23.50
2019-03-12T02:43:52.859Z,18.50
2019-03-12T02:44:52.835Z,19.10
2019-03-12T02:45:52.812Z,18.30
2019-03-12T02:46:52.802Z,20.40
2019-03-12T02:47:52.814Z,20.70
2019-03-12T02:48:52.781Z,19.40
2019-03-12T02:49:52.784Z,19.70
2019-03-12T02:50:52.798Z,18.30
2019-03-12T02:51:52.758Z,20.80
2019-03-12T02:52:52.750Z,19.70
2019-03-12T02:53:52.729Z,18.90
2019-03-12T02:54:52.717Z,20.20
2019-03-12T02:55:52.736Z,19.80
2019-03-12T02:56:52.704Z,18.10
2019-03-12T02:57:52.689Z,21.40
2019-03-12T02:58:52.694Z,19.10
2019-03-12T02:59:52.663Z,19.90
2019-03-12T03:00:52.696Z,21.10
2019-03-12T03:01:52.648Z,20.90
2019-03-12T03:02:52.661Z,20.20
2019-03-12T03:03:52.632Z,21.50
2019-03-12T03:04:54.186Z,21.90
2019-03-12T03:05:52.599Z,19.10
2019-03-12T03:06:52.608Z,20.90
2019-03-12T03:07:52.605Z,19.80
2019-03-12T03:08:52.571Z,19.40
2019-03-12T03:09:52.606Z,19.70
2019-03-12T03:10:52.558Z,20.10
2019-03-12T03:11:52.558Z,19.40
2019-03-12T03:12:52.534Z,21.30
2019-03-12T03:13:52.522Z,21.70
2019-03-12T03:14:52.530Z,22.60
2019-03-12T03:15:52.513Z,18.20
2019-03-12T03:16:52.513Z,23.40
2019-03-12T03:17:52.472Z,21.30
2019-03-12T03:18:52.462Z,20.80
2019-03-12T03:19:52.450Z,21.80
2019-03-12T03:20:52.443Z,22.20
2019-03-12T03:21:52.465Z,21.50
2019-03-12T03:22:52.454Z,20.40
2019-03-12T03:23:52.423Z,21.30
2019-03-12T03:24:52.406Z,20.60
2019-03-12T03:25:52.389Z,21.50
2019-03-12T03:26:52.398Z,21.70
2019-03-12T03:27:52.407Z,21.90
2019-03-12T03:28:52.390Z,20.50
2019-03-12T03:29:52.349Z,21.20
2019-03-12T03:30:52.338Z,22.40
2019-03-12T03:31:52.335Z,22.30
2019-03-12T03:32:52.324Z,22.70
2019-03-12T03:33:52.337Z,20.90
2019-03-12T03:34:52.317Z,22.10
2019-03-12T03:35:52.296Z,22.90
2019-03-12T03:36:52.285Z,21.60
2019-03-12T03:37:52.267Z,20.10
2019-03-12T03:38:52.286Z,23.60
2019-03-12T03:39:52.249Z,21.20
2019-03-12T03:40:52.256Z,23.80
2019-03-12T03:41:52.251Z,24.80
2019-03-12T03:42:52.226Z,24.10
2019-03-12T03:43:52.210Z,23.20
2019-03-12T03:44:52.200Z,23.50
2019-03-12T03:45:52.213Z,22.10
2019-03-12T03:46:52.204Z,23.60
2019-03-12T03:47:52.172Z,21.30
2019-03-12T03:48:52.161Z,22.30
2019-03-12T03:49:52.145Z,21.10
2019-03-12T03:50:52.167Z,22.40
2019-03-12T03:51:52.146Z,22.60
2019-03-12T03:52:52.171Z,22.50
2019-03-12T03:53:52.108Z,21.10
2019-03-12T03:54:52.095Z,22.10
2019-03-12T03:55:52.102Z,21.70
2019-03-12T03:56:52.101Z,22.20
2019-03-12T03:57:52.061Z,22.00
2019-03-12T03:58:52.053Z,22.00
2019-03-12T03:59:52.043Z,22.80
2019-03-12T04:00:52.036Z,20.60
2019-03-12T04:01:52.052Z,21.20
2019-03-12T04:02:52.100Z,22.10
2019-03-12T04:03:52.010Z,20.90
2019-03-12T04:04:51.991Z,22.80
2019-03-12T04:05:51.986Z,20.40
2019-03-12T04:06:51.977Z,22.00
2019-03-12T04:07:51.993Z,22.30
2019-03-12T04:08:51.961Z,21.20
2019-03-12T04:09:51.942Z,22.80
2019-03-12T04:10:51.927Z,22.80
2019-03-12T04:11:51.918Z,22.00
2019-03-12T04:12:51.903Z,21.90
2019-03-12T04:13:51.933Z,22.20
2019-03-12T04:14:51.889Z,23.20
2019-03-12T04:15:51.871Z,22.90
2019-03-12T04:16:51.863Z,23.90
2019-03-12T04:17:51.858Z,21.00
2019-03-12T04:18:51.865Z,20.20
2019-03-12T04:19:51.855Z,21.90
2019-03-12T04:20:51.827Z,22.20
2019-03-12T04:21:51.810Z,21.10
2019-03-12T04:22:52.268Z,19.60
2019-03-12T04:23:51.827Z,19.80
2019-03-12T04:24:51.784Z,21.00
2019-03-12T04:25:51.773Z,21.40
2019-03-12T04:26:51.766Z,20.80
2019-03-12T04:27:51.752Z,20.60
2019-03-12T04:28:51.741Z,21.70
2019-03-12T04:29:51.758Z,20.80
2019-03-12T04:30:51.713Z,20.30
2019-03-12T04:31:51.711Z,20.30
2019-03-12T04:32:51.706Z,21.30
2019-03-12T04:33:51.688Z,20.20
2019-03-12T04:34:51.671Z,20.10
2019-03-12T04:35:51.677Z,17.70
2019-03-12T04:36:51.655Z,20.10
2019-03-12T04:37:51.646Z,16.30
2019-03-12T04:38:51.638Z,19.10
2019-03-12T04:39:51.646Z,18.80
2019-03-12T04:40:51.621Z,19.40
2019-03-12T04:41:51.600Z,17.80
2019-03-12T04:42:51.596Z,18.00
2019-03-12T04:43:51.581Z,20.20
2019-03-12T04:44:51.588Z,20.20
2019-03-12T04:45:51.564Z,19.00
2019-03-12T04:46:51.556Z,19.80
2019-03-12T04:47:51.534Z,21.60
2019-03-12T04:48:51.528Z,20.20
2019-03-12T04:49:51.551Z,18.90
2019-03-12T04:50:51.520Z,18.90
2019-03-12T04:51:51.501Z,19.70
2019-03-12T04:52:51.490Z,19.90
2019-03-12T04:53:51.474Z,20.20
2019-03-12T04:54:51.461Z,17.70
2019-03-12T04:56:00.029Z,18.80
2019-03-12T04:56:51.448Z,16.70
2019-03-12T04:57:51.439Z,20.80
2019-03-12T04:58:51.431Z,18.50
2019-03-12T04:59:51.412Z,18.00
2019-03-12T05:00:51.425Z,18.90
2019-03-12T05:01:51.394Z,19.70
2019-03-12T05:02:51.394Z,18.10
2019-03-12T05:03:51.395Z,19.90
2019-03-12T05:04:51.356Z,18.00
2019-03-12T05:05:51.374Z,17.20
2019-03-12T05:06:51.338Z,17.90
2019-03-12T05:07:51.333Z,15.70
2019-03-12T05:08:51.339Z,18.30
2019-03-12T05:09:51.316Z,16.90
2019-03-12T05:10:51.331Z,18.30
2019-03-12T05:11:59.650Z,16.10
2019-03-12T05:12:51.274Z,18.30
2019-03-12T05:13:51.271Z,17.80
2019-03-12T05:14:51.343Z,19.80
2019-03-12T05:15:51.251Z,18.20
2019-03-12T05:16:51.261Z,16.60
2019-03-12T05:17:51.230Z,16.80
2019-03-12T05:18:51.216Z,17.30
2019-03-12T05:19:51.207Z,17.00
2019-03-12T05:20:51.210Z,15.30
2019-03-12T05:21:51.216Z,17.70
2019-03-12T05:22:51.171Z,15.90
2019-03-12T05:23:51.163Z,14.70
2019-03-12T05:24:51.149Z,15.00
2019-03-12T05:25:51.169Z,15.90
2019-03-12T05:26:51.151Z,16.20
2019-03-12T05:27:51.147Z,15.90
2019-03-12T05:28:51.115Z,15.90
2019-03-12T05:29:51.100Z,15.00
2019-03-12T05:30:51.085Z,13.50
2019-03-12T05:31:51.081Z,12.70
2019-03-12T05:32:51.192Z,13.20
2019-03-12T05:33:51.054Z,12.80
2019-03-12T05:34:51.045Z,14.10
2019-03-12T05:35:51.050Z,15.30
2019-03-12T05:36:51.028Z,13.60
2019-03-12T05:37:51.050Z,13.10
2019-03-12T05:38:51.014Z,13.30
2019-03-12T05:39:51.000Z,14.90
2019-03-12T05:40:50.990Z,14.00
2019-03-12T05:41:50.978Z,14.20
2019-03-12T05:42:50.965Z,13.10
2019-03-12T05:43:50.976Z,11.70
2019-03-12T05:44:50.999Z,12.60
2019-03-12T05:45:50.936Z,13.70
2019-03-12T05:46:50.925Z,13.30
2019-03-12T05:47:50.914Z,13.30
2019-03-12T05:48:50.920Z,13.40
2019-03-12T05:49:50.927Z,14.80
2019-03-12T05:50:50.885Z,13.10
2019-03-12T05:51:50.871Z,12.50
2019-03-12T05:52:50.892Z,11.90
2019-03-12T05:53:50.845Z,11.90
2019-03-12T05:54:50.841Z,11.90
2019-03-12T05:55:50.847Z,14.40
2019-03-12T05:56:50.823Z,11.90
2019-03-12T05:57:50.812Z,12.40
2019-03-12T05:58:50.799Z,12.50
2019-03-12T05:59:50.793Z,13.60
2019-03-12T06:00:50.800Z,10.50
2019-03-12T06:01:50.763Z,11.60
2019-03-12T06:02:50.756Z,10.10
2019-03-12T06:03:50.747Z,11.50
2019-03-12T06:04:50.740Z,11.00
2019-03-12T06:05:51.349Z,12.10
2019-03-12T06:06:50.716Z,13.00
2019-03-12T06:07:50.709Z,12.80
2019-03-12T06:08:50.691Z,12.40
2019-03-12T06:09:50.692Z,15.50
2019-03-12T06:10:50.700Z,12.50
2019-03-12T06:11:50.666Z,11.20
2019-03-12T06:12:50.661Z,12.60
2019-03-12T06:13:50.642Z,13.50
2019-03-12T06:14:50.632Z,11.60
2019-03-12T06:15:53.235Z,11.10
2019-03-12T06:16:50.603Z,13.10
2019-03-12T06:17:50.603Z,10.90
2019-03-12T06:18:50.589Z,11.50
2019-03-12T06:19:50.575Z,9.60
2019-03-12T06:20:50.596Z,11.70
2019-03-12T06:21:50.565Z,9.10
2019-03-12T06:22:50.546Z,11.90
2019-03-12T06:23:50.551Z,10.70
2019-03-12T06:24:50.534Z,11.00
2019-03-12T06:25:50.513Z,10.70
2019-03-12T06:26:50.525Z,12.00
2019-03-12T06:27:50.487Z,12.60
2019-03-12T06:28:50.482Z,11.10
2019-03-12T06:29:50.481Z,13.60
2019-03-12T06:30:50.467Z,10.30
2019-03-12T06:31:50.499Z,9.60
2019-03-12T06:32:50.444Z,14.60
2019-03-12T06:33:50.427Z,11.50
2019-03-12T06:34:50.423Z,10.40
2019-03-12T06:35:50.422Z,11.30
2019-03-12T06:36:50.406Z,12.80
2019-03-12T06:37:50.690Z,10.60
2019-03-12T06:38:50.384Z,10.40
2019-03-12T06:39:50.369Z,10.20
2019-03-12T06:40:50.463Z,12.30
2019-03-12T06:41:50.350Z,12.00
2019-03-12T06:42:50.366Z,10.70
2019-03-12T06:43:50.340Z,14.00
2019-03-12T06:44:50.328Z,12.40
2019-03-12T06:45:50.311Z,11.20
2019-03-12T06:46:50.295Z,13.40
2019-03-12T06:47:50.335Z,10.90
2019-03-12T06:48:50.281Z,11.40
2019-03-12T06:49:50.272Z,11.40
2019-03-12T06:50:50.257Z,10.70
2019-03-12T06:51:50.241Z,11.70
2019-03-12T06:52:50.237Z,12.00
2019-03-12T06:53:50.247Z,11.80
2019-03-12T06:54:50.220Z,10.80
2019-03-12T06:55:50.208Z,11.00
2019-03-12T06:56:50.196Z,10.20
2019-03-12T06:57:50.182Z,11.90
2019-03-12T06:58:50.201Z,13.60
2019-03-12T06:59:50.162Z,12.00
2019-03-12T07:00:50.156Z,12.30
2019-03-12T07:01:50.145Z,11.90
2019-03-12T07:02:50.133Z,10.50
2019-03-12T07:03:50.153Z,11.50
2019-03-12T07:04:50.115Z,12.50
2019-03-12T07:05:50.095Z,11.30
2019-03-12T07:06:50.092Z,10.40
2019-03-12T07:07:50.085Z,12.60
2019-03-12T07:08:50.075Z,11.70
2019-03-12T07:09:50.079Z,11.50
2019-03-12T07:10:50.046Z,11.90
2019-03-12T07:11:50.042Z,12.70
2019-03-12T07:12:50.062Z,12.00
2019-03-12T07:13:50.030Z,13.10
2019-03-12T07:14:50.050Z,12.60
2019-03-12T07:15:50.030Z,13.10
2019-03-12T07:16:49.991Z,12.10
2019-03-12T07:17:49.978Z,11.60
2019-03-12T07:18:49.974Z,13.10
2019-03-12T07:19:49.968Z,12.40
2019-03-12T07:20:49.976Z,12.70
2019-03-12T07:21:49.955Z,12.50
2019-03-12T07:22:49.937Z,13.80
2019-03-12T07:23:49.924Z,14.20
2019-03-12T07:24:49.931Z,14.10
2019-03-12T07:25:51.063Z,12.60
2019-03-12T07:26:49.920Z,14.10
2019-03-12T07:27:49.884Z,12.20
2019-03-12T07:28:50.898Z,15.30
2019-03-12T07:29:49.860Z,15.00
2019-03-12T07:30:49.876Z,12.30
2019-03-12T07:31:49.838Z,14.70
2019-03-12T07:32:49.828Z,14.20
2019-03-12T07:33:49.833Z,13.90
2019-03-12T07:34:49.814Z,14.60
2019-03-12T07:35:49.809Z,14.10
2019-03-12T07:36:49.836Z,13.50
2019-03-12T07:37:49.802Z,12.20
2019-03-12T07:38:49.771Z,13.70
2019-03-12T07:39:49.765Z,13.20
2019-03-12T07:40:49.746Z,13.60
2019-03-12T07:41:49.756Z,13.10
2019-03-12T07:42:49.722Z,15.40
2019-03-12T07:43:49.717Z,14.70
2019-03-12T07:44:49.698Z,14.50
2019-03-12T07:45:49.704Z,14.80
2019-03-12T07:46:49.706Z,13.70
2019-03-12T07:47:49.697Z,13.80
2019-03-12T07:48:49.739Z,14.00
2019-03-12T07:49:49.725Z,13.20
2019-03-12T07:50:49.634Z,13.10
2019-03-12T07:51:49.645Z,11.70
2019-03-12T07:52:49.617Z,13.90
2019-03-12T07:53:58.849Z,13.80
2019-03-12T07:54:50.600Z,13.10
2019-03-12T07:55:49.590Z,11.30
2019-03-12T07:56:49.610Z,12.40
2019-03-12T07:57:49.570Z,11.90
2019-03-12T07:58:49.558Z,13.00
2019-03-12T07:59:49.555Z,11.00
2019-03-12T08:00:49.537Z,12.60
2019-03-12T08:01:49.533Z,10.60
2019-03-12T08:02:49.535Z,13.70
2019-03-12T08:03:49.533Z,14.10
2019-03-12T08:04:49.490Z,12.40
2019-03-12T08:05:49.494Z,12.10
2019-03-12T08:06:49.472Z,12.10
2019-03-12T08:07:49.491Z,12.60
2019-03-12T08:08:49.465Z,11.20
2019-03-12T08:09:49.435Z,12.40
2019-03-12T08:10:49.425Z,12.60
2019-03-12T08:11:49.427Z,13.60
2019-03-12T08:12:49.441Z,12.60
2019-03-12T08:13:49.402Z,12.20
2019-03-12T08:14:49.386Z,15.10
2019-03-12T08:15:50.583Z,12.20
2019-03-12T08:16:49.366Z,13.50
2019-03-12T08:17:49.379Z,14.30
2019-03-12T08:18:49.354Z,13.70
2019-03-12T08:19:49.390Z,13.60
2019-03-12T08:20:49.326Z,13.00
2019-03-12T08:21:49.906Z,14.30
2019-03-12T08:22:49.307Z,15.20
2019-03-12T08:23:49.315Z,12.70
2019-03-12T08:24:49.284Z,15.40
2019-03-12T08:25:49.278Z,14.00
2019-03-12T08:26:49.259Z,14.40
2019-03-12T08:27:49.241Z,13.60
2019-03-12T08:28:49.247Z,14.10
2019-03-12T08:29:49.225Z,13.60
2019-03-12T08:30:49.219Z,15.60
2019-03-12T08:31:49.211Z,13.40
2019-03-12T08:32:49.196Z,13.60
2019-03-12T08:33:51.036Z,14.20
2019-03-12T08:34:49.183Z,13.40
2019-03-12T08:35:49.173Z,12.70
2019-03-12T08:36:49.152Z,12.10
2019-03-12T08:37:49.142Z,10.90
2019-03-12T08:38:49.175Z,14.10
2019-03-12T08:39:49.122Z,13.10
2019-03-12T08:40:52.703Z,12.40
2019-03-12T08:41:49.102Z,11.70
2019-03-12T08:42:54.694Z,10.90
2019-03-12T08:43:50.081Z,12.20
2019-03-12T08:44:49.067Z,11.50
2019-03-12T08:45:49.849Z,11.60
2019-03-12T08:46:49.061Z,9.90
2019-03-12T08:47:49.045Z,10.00
2019-03-12T08:48:49.040Z,12.70
2019-03-12T08:49:49.061Z,11.20
2019-03-12T08:50:49.006Z,9.70
2019-03-12T08:51:48.998Z,9.80
2019-03-12T08:52:48.988Z,11.30
2019-03-12T08:53:48.977Z,11.80
2019-03-12T08:54:54.150Z,9.80
2019-03-12T08:55:49.951Z,10.20
2019-03-12T08:56:48.939Z,10.30
2019-03-12T08:57:48.939Z,10.40
2019-03-12T08:58:48.920Z,11.00
2019-03-12T08:59:48.941Z,12.00
2019-03-12T09:00:48.900Z,12.30
2019-03-12T09:01:48.895Z,12.40
2019-03-12T09:02:48.881Z,10.80
2019-03-12T09:03:48.884Z,11.30
2019-03-12T09:04:48.870Z,10.60
2019-03-12T09:05:48.903Z,10.50
2019-03-12T09:06:48.870Z,10.70
2019-03-12T09:07:48.833Z,8.80
2019-03-12T09:08:48.820Z,10.30
2019-03-12T09:09:48.819Z,9.00
2019-03-12T09:10:48.833Z,10.10
2019-03-12T09:11:48.794Z,10.10
2019-03-12T09:12:48.800Z,11.40
2019-03-12T09:13:48.765Z,11.10
2019-03-12T09:14:48.752Z,10.60
2019-03-12T09:15:48.759Z,9.20
2019-03-12T09:16:48.770Z,10.00
2019-03-12T09:17:48.724Z,10.00
2019-03-12T09:18:48.717Z,11.00
2019-03-12T09:19:48.694Z,9.80
2019-03-12T09:20:48.684Z,9.00
2019-03-12T09:21:48.706Z,11.20
2019-03-12T09:22:48.672Z,13.50
2019-03-12T09:23:48.694Z,8.60
2019-03-12T09:24:48.669Z,8.90
2019-03-12T09:25:48.631Z,10.20
2019-03-12T09:26:48.627Z,8.70
2019-03-12T09:27:48.631Z,8.90
2019-03-12T09:28:48.755Z,7.30
2019-03-12T09:29:48.596Z,7.10
2019-03-12T09:30:48.684Z,8.50
2019-03-12T09:31:48.572Z,7.40
2019-03-12T09:32:48.572Z,7.30
2019-03-12T09:33:48.583Z,8.20
2019-03-12T09:34:48.547Z,6.60
2019-03-12T09:35:48.539Z,6.80
2019-03-12T09:36:48.532Z,8.60
2019-03-12T09:37:48.503Z,9.40
2019-03-12T09:38:48.492Z,7.10
2019-03-12T09:39:48.513Z,7.40
2019-03-12T09:40:48.472Z,7.00
2019-03-12T09:41:49.208Z,7.70
2019-03-12T09:42:48.511Z,8.60
2019-03-12T09:43:48.465Z,5.80
2019-03-12T09:44:49.222Z,7.40
2019-03-12T09:45:49.412Z,9.20
2019-03-12T09:46:48.408Z,5.20
2019-03-12T09:47:48.407Z,7.20
2019-03-12T09:48:48.391Z,5.30
2019-03-12T09:49:48.373Z,6.00
2019-03-12T09:50:48.387Z,5.90
2019-03-12T09:51:48.357Z,6.30
2019-03-12T09:52:48.338Z,6.50
2019-03-12T09:53:48.351Z,7.00
2019-03-12T09:54:48.355Z,6.80
2019-03-12T09:55:48.345Z,5.50
2019-03-12T09:56:48.344Z,8.10
2019-03-12T09:57:48.336Z,6.30
2019-03-12T09:58:48.280Z,5.80
2019-03-12T09:59:48.262Z,5.60
2019-03-12T10:00:48.274Z,5.50
2019-03-12T10:01:48.257Z,6.60
2019-03-12T10:02:48.236Z,6.50
2019-03-12T10:03:48.221Z,5.20
2019-03-12T10:04:48.215Z,5.40
2019-03-12T10:05:48.236Z,5.40
2019-03-12T10:06:48.198Z,7.30
2019-03-12T10:07:48.195Z,5.70
2019-03-12T10:08:48.246Z,5.50
2019-03-12T10:09:48.168Z,4.50
2019-03-12T10:10:48.219Z,5.40
2019-03-12T10:11:48.171Z,6.30
2019-03-12T10:12:48.138Z,4.50
2019-03-12T10:13:48.137Z,3.40
2019-03-12T10:14:48.135Z,5.20
2019-03-12T10:15:48.220Z,6.10
2019-03-12T10:16:48.098Z,6.60
2019-03-12T10:17:48.097Z,4.10
2019-03-12T10:18:48.079Z,5.80
2019-03-12T10:19:48.092Z,3.80
2019-03-12T10:20:48.063Z,5.20
2019-03-12T10:21:48.101Z,4.70
2019-03-12T10:22:48.032Z,5.40
2019-03-12T10:23:48.015Z,4.60
2019-03-12T10:24:48.013Z,6.20
2019-03-12T10:25:47.999Z,4.40
2019-03-12T10:26:48.005Z,4.30
2019-03-12T10:27:47.976Z,4.90
2019-03-12T10:28:47.970Z,4.80
2019-03-12T10:29:47.966Z,4.00
2019-03-12T10:30:47.937Z,5.50
2019-03-12T10:31:47.956Z,5.20
2019-03-12T10:32:47.912Z,4.70
2019-03-12T10:33:47.935Z,4.80
2019-03-12T10:34:47.902Z,5.20
2019-03-12T10:35:47.882Z,3.80
2019-03-12T10:36:47.908Z,3.50
2019-03-12T10:37:47.899Z,4.20
2019-03-12T10:38:47.861Z,4.60
2019-03-12T10:39:47.850Z,4.00
2019-03-12T10:45:22.361Z,5.80
2019-03-12T10:46:22.120Z,4.50
2019-03-12T10:47:22.105Z,3.80
2019-03-12T10:48:22.111Z,4.60
2019-03-12T10:49:22.093Z,3.80
2019-03-12T10:50:22.094Z,4.80
2019-03-12T10:51:22.066Z,5.10
2019-03-12T10:52:22.060Z,4.10
2019-03-12T10:53:22.048Z,3.30
2019-03-12T10:54:22.043Z,3.30
2019-03-12T10:55:22.047Z,4.10
2019-03-12T10:56:22.015Z,5.10
2019-03-12T10:57:21.996Z,3.40
2019-03-12T10:58:21.991Z,4.30
2019-03-12T10:59:21.995Z,3.50
2019-03-12T11:00:21.985Z,5.00
2019-03-12T11:01:21.962Z,3.70
2019-03-12T11:02:21.945Z,3.80
2019-03-12T11:03:21.981Z,3.40
2019-03-12T11:04:21.935Z,4.30
2019-03-12T11:05:22.043Z,3.70
2019-03-12T11:06:21.920Z,3.10
2019-03-12T11:07:21.898Z,3.80
2019-03-12T11:08:21.901Z,4.00
2019-03-12T11:09:21.937Z,3.90
2019-03-12T11:10:21.903Z,2.70
2019-03-12T11:11:21.853Z,2.80
2019-03-12T11:12:21.847Z,3.10
2019-03-12T11:13:21.840Z,4.10
2019-03-12T11:14:21.841Z,2.80
2019-03-12T11:15:21.816Z,2.00
2019-03-12T11:16:21.798Z,3.70
2019-03-12T11:17:21.809Z,2.70
2019-03-12T11:18:21.786Z,3.10
2019-03-12T11:19:21.776Z,3.70
2019-03-12T11:20:21.764Z,3.90
2019-03-12T11:21:21.736Z,4.30
2019-03-12T11:22:21.737Z,2.70
2019-03-12T11:23:21.733Z,4.00
2019-03-12T11:24:21.715Z,3.50
2019-03-12T11:25:27.074Z,2.90
2019-03-12T11:26:22.697Z,3.00
2019-03-12T11:27:21.695Z,3.30
2019-03-12T11:28:21.667Z,3.40
2019-03-12T11:29:21.675Z,2.60
2019-03-12T11:30:21.654Z,4.40
2019-03-12T11:31:21.666Z,3.10
2019-03-12T11:32:21.621Z,3.50
2019-03-12T11:33:21.610Z,2.70
2019-03-12T11:34:21.606Z,2.80
2019-03-12T11:35:21.590Z,1.70
2019-03-12T11:36:21.605Z,2.50
2019-03-12T11:37:21.600Z,2.30
2019-03-12T11:38:21.584Z,2.90
2019-03-12T11:39:21.554Z,1.70
2019-03-12T11:40:21.595Z,1.40
2019-03-12T11:41:21.533Z,3.10
2019-03-12T11:42:21.534Z,3.40
2019-03-12T11:43:21.503Z,2.00
2019-03-12T11:44:21.501Z,2.60
2019-03-12T11:45:34.779Z,2.80
2019-03-12T11:46:22.472Z,2.70
2019-03-12T11:47:22.433Z,2.70
2019-03-12T11:48:21.473Z,2.70
2019-03-12T11:49:21.459Z,2.40
2019-03-12T11:50:21.684Z,2.30
2019-03-12T11:51:21.469Z,2.90
2019-03-12T11:52:21.417Z,3.50
2019-03-12T11:53:21.422Z,3.30
2019-03-12T11:54:21.382Z,2.80
2019-03-12T11:55:21.382Z,3.30
2019-03-12T11:56:21.383Z,4.00
2019-03-12T11:57:21.382Z,2.60
2019-03-12T11:58:21.370Z,2.80
2019-03-12T11:59:21.366Z,2.10
2019-03-12T12:00:21.320Z,2.40
2019-03-12T12:01:21.308Z,2.90
2019-03-12T12:02:21.308Z,3.30
2019-03-12T12:03:21.306Z,2.50
2019-03-12T12:04:21.366Z,3.50
2019-03-12T12:05:21.280Z,2.50
2019-03-12T12:06:21.283Z,3.10
2019-03-12T12:07:21.265Z,3.20
2019-03-12T12:08:21.241Z,3.60
2019-03-12T12:09:21.249Z,4.70
2019-03-12T12:10:21.249Z,3.30
2019-03-12T12:11:21.206Z,4.90
2019-03-12T12:12:21.191Z,2.20
2019-03-12T12:13:21.185Z,2.80
2019-03-12T12:14:21.175Z,2.00
2019-03-12T12:15:21.187Z,2.10
2019-03-12T12:16:21.152Z,3.50
2019-03-12T12:17:21.149Z,2.20
2019-03-12T12:18:21.148Z,2.90
2019-03-12T12:19:21.119Z,2.60
2019-03-12T12:20:29.418Z,2.10
2019-03-12T12:21:22.119Z,2.80
2019-03-12T12:22:21.092Z,2.90
2019-03-12T12:23:21.081Z,2.80
2019-03-12T12:24:21.066Z,2.40
2019-03-12T12:25:21.051Z,3.50
2019-03-12T12:26:21.070Z,2.30
2019-03-12T12:27:21.028Z,2.00
2019-03-12T12:28:21.024Z,4.80
2019-03-12T12:29:21.015Z,2.30
2019-03-12T12:30:21.021Z,3.10
2019-03-12T12:31:21.097Z,2.80
2019-03-12T12:32:21.006Z,2.70
2019-03-12T12:33:20.965Z,2.00
2019-03-12T12:34:20.961Z,3.00
2019-03-12T12:35:20.954Z,2.90
2019-03-12T12:36:20.933Z,2.00
2019-03-12T12:37:20.940Z,3.80
2019-03-12T12:38:23.459Z,2.40
2019-03-12T12:39:20.930Z,2.70
2019-03-12T12:40:20.908Z,3.50
2019-03-12T12:41:20.882Z,2.90
2019-03-12T12:42:20.889Z,2.80
2019-03-12T12:43:20.892Z,2.60
2019-03-12T12:44:20.850Z,3.40
2019-03-12T12:45:20.835Z,3.40
2019-03-12T12:46:20.826Z,3.00
2019-03-12T12:47:20.817Z,3.10
2019-03-12T12:48:20.819Z,2.50
2019-03-12T12:49:20.824Z,1.90
2019-03-12T12:50:20.786Z,2.90
2019-03-12T12:51:20.774Z,2.50
2019-03-12T12:52:20.774Z,3.30
2019-03-12T12:53:20.783Z,3.20
2019-03-12T12:54:20.782Z,2.30
2019-03-12T12:55:20.736Z,2.30
2019-03-12T12:56:20.719Z,2.50
2019-03-12T12:57:20.732Z,3.10
2019-03-12T12:58:20.724Z,2.90
2019-03-12T12:59:20.690Z,2.70
2019-03-12T13:00:20.703Z,3.10
2019-03-12T13:01:20.677Z,3.80
2019-03-12T13:02:20.694Z,3.20
2019-03-12T13:03:20.672Z,2.70
2019-03-12T13:04:20.631Z,2.70
2019-03-12T13:05:20.643Z,2.30